PWSweather.com
Personal Weather Stations
Station Observations
KTXROWLE6
Ravens Nest, Rowlett, TX 75089

Ravens NestRowlett, TX 75089

Lat: 32.93105, Lon: -96.57368

Elevation: 556

Station Type: Davis Vantage Pro2 6152

http://rowlett.ws

Latest ConditionsUpdated 5:45:00 PM CST Sunday, Nov 18, 2018
Currently Today's Max Today's Min Today's Average
Temperature 40.2°F4.6°C 58.6°F14.8°C 40.2°F4.6°C 45.0°F7.2°C
Dew Point 30.1°F-1.1°C 52.3°F11.3°C 30.1°F-1.1°C 36.4°F2.4°C
Winds 3.3 mph N5.3 kmh N 9.2 mph -14.8 kmh - - 6.1 mph 9.8 kmh
Wind Gusts 9.0 mph14.5 kmh 18.0 mph29.0 kmh - -
Humidity 67% 85% 66% 72%
Pressure 30.31 in1026.4 mb 30.37 in1028.4 mb 30.11 in1019.6 mb -
Precipitation - 0.08 in2.0 mm - -
Hour Temp Dew Point Humidity Winds Wind Gusts Pressure Precip Precip Rate Daily Precip Total
05:45 PM 40.2°F4.6°C 30.1°F-1.1°C 67% 3.3 mph N5.3 kmh N 9.0 mph14.5 kmh 30.31 in1026.4 mb 0.00 in0.0 mm 0.00 in0.0 mm 0.08 in2.0 mm
05:40 PM 40.2°F4.6°C 30.1°F-1.1°C 67% 4.1 mph N6.6 kmh N 9.0 mph14.5 kmh 30.30 in1026.1 mb 0.00 in0.0 mm 0.00 in0.0 mm 0.08 in2.0 mm
05:35 PM 40.3°F4.6°C 30.2°F-1.0°C 67% 4.3 mph N6.9 kmh N 9.0 mph14.5 kmh 30.30 in1026.1 mb 0.00 in0.0 mm 0.00 in0.0 mm 0.08 in2.0 mm
05:30 PM 40.3°F4.6°C 30.6°F-0.8°C 68% 4.8 mph N7.7 kmh N 9.0 mph14.5 kmh 30.30 in1026.1 mb 0.00 in0.0 mm 0.00 in0.0 mm 0.08 in2.0 mm
05:25 PM 40.4°F4.7°C 30.3°F-0.9°C 67% 4.4 mph N7.1 kmh N 8.0 mph12.9 kmh 30.30 in1026.1 mb 0.00 in0.0 mm 0.00 in0.0 mm 0.08 in2.0 mm
05:20 PM 40.5°F4.7°C 30.4°F-0.9°C 67% 3.6 mph N5.8 kmh N 8.0 mph12.9 kmh 30.30 in1026.1 mb 0.00 in0.0 mm 0.00 in0.0 mm 0.08 in2.0 mm
05:15 PM 40.6°F4.8°C 30.5°F-0.8°C 67% 4.3 mph N6.9 kmh N 9.0 mph14.5 kmh 30.30 in1026.1 mb 0.00 in0.0 mm 0.00 in0.0 mm 0.08 in2.0 mm
05:10 PM 40.6°F4.8°C 30.5°F-0.8°C 67% 4.9 mph NNE7.9 kmh NNE 9.0 mph14.5 kmh 30.30 in1026.1 mb 0.00 in0.0 mm 0.00 in0.0 mm 0.08 in2.0 mm
05:05 PM 40.7°F4.8°C 30.6°F-0.8°C 67% 4.5 mph N7.2 kmh N 9.0 mph14.5 kmh 30.30 in1026.1 mb 0.00 in0.0 mm 0.00 in0.0 mm 0.08 in2.0 mm
05:00 PM 40.8°F4.9°C 30.7°F-0.7°C 67% 4.3 mph NNE6.9 kmh NNE 10.0 mph16.1 kmh 30.30 in1026.1 mb 0.00 in0.0 mm 0.00 in0.0 mm 0.08 in2.0 mm
04:55 PM 40.9°F4.9°C 30.8°F-0.7°C 67% 5.6 mph N9.0 kmh N 10.0 mph16.1 kmh 30.30 in1026.1 mb 0.00 in0.0 mm 0.00 in0.0 mm 0.08 in2.0 mm
04:50 PM 40.9°F4.9°C 30.8°F-0.7°C 67% 4.0 mph N6.4 kmh N 9.0 mph14.5 kmh 30.30 in1026.1 mb 0.00 in0.0 mm 0.00 in0.0 mm 0.08 in2.0 mm
04:45 PM 40.9°F4.9°C 30.8°F-0.7°C 67% 3.7 mph N6.0 kmh N 8.0 mph12.9 kmh 30.30 in1026.1 mb 0.00 in0.0 mm 0.00 in0.0 mm 0.08 in2.0 mm
04:40 PM 41.0°F5.0°C 30.9°F-0.6°C 67% 4.8 mph N7.7 kmh N 8.0 mph12.9 kmh 30.30 in1026.1 mb 0.00 in0.0 mm 0.00 in0.0 mm 0.08 in2.0 mm
04:35 PM 41.0°F5.0°C 30.9°F-0.6°C 67% 3.6 mph NNE5.8 kmh NNE 8.0 mph12.9 kmh 30.30 in1026.1 mb 0.00 in0.0 mm 0.00 in0.0 mm 0.08 in2.0 mm
04:30 PM 41.1°F5.1°C 31.0°F-0.6°C 67% 4.6 mph N7.4 kmh N 9.0 mph14.5 kmh 30.30 in1026.1 mb 0.00 in0.0 mm 0.00 in0.0 mm 0.08 in2.0 mm
04:25 PM 41.1°F5.1°C 31.0°F-0.6°C 67% 4.8 mph N7.7 kmh N 10.0 mph16.1 kmh 30.29 in1025.7 mb 0.00 in0.0 mm 0.00 in0.0 mm 0.08 in2.0 mm
04:20 PM 41.1°F5.1°C 30.6°F-0.8°C 66% 5.4 mph N8.7 kmh N 10.0 mph16.1 kmh 30.29 in1025.7 mb 0.00 in0.0 mm 0.00 in0.0 mm 0.08 in2.0 mm
04:15 PM 41.2°F5.1°C 30.7°F-0.7°C 66% 5.2 mph N8.4 kmh N 10.0 mph16.1 kmh 30.29 in1025.7 mb 0.00 in0.0 mm 0.00 in0.0 mm 0.08 in2.0 mm
04:10 PM 41.3°F5.2°C 31.2°F-0.4°C 67% 4.0 mph N6.4 kmh N 10.0 mph16.1 kmh 30.29 in1025.7 mb 0.00 in0.0 mm 0.00 in0.0 mm 0.08 in2.0 mm
04:05 PM 41.5°F5.3°C 31.4°F-0.3°C 67% 4.8 mph N7.7 kmh N 10.0 mph16.1 kmh 30.29 in1025.7 mb 0.00 in0.0 mm 0.00 in0.0 mm 0.08 in2.0 mm
04:00 PM 41.3°F5.2°C 31.2°F-0.4°C 67% 5.3 mph N8.5 kmh N 10.0 mph16.1 kmh 30.29 in1025.7 mb 0.00 in0.0 mm 0.00 in0.0 mm 0.08 in2.0 mm
03:55 PM 41.3°F5.2°C 30.8°F-0.7°C 66% 5.5 mph NNE8.9 kmh NNE 10.0 mph16.1 kmh 30.29 in1025.7 mb 0.00 in0.0 mm 0.00 in0.0 mm 0.08 in2.0 mm
03:50 PM 41.3°F5.2°C 30.8°F-0.7°C 66% 6.1 mph N9.8 kmh N 10.0 mph16.1 kmh 30.29 in1025.7 mb 0.00 in0.0 mm 0.00 in0.0 mm 0.08 in2.0 mm
03:45 PM 41.5°F5.3°C 31.0°F-0.6°C 66% 5.4 mph N8.7 kmh N 10.0 mph16.1 kmh 30.29 in1025.7 mb 0.00 in0.0 mm 0.00 in0.0 mm 0.08 in2.0 mm
03:40 PM 41.5°F5.3°C 31.0°F-0.6°C 66% 5.1 mph N8.2 kmh N 10.0 mph16.1 kmh 30.29 in1025.7 mb 0.00 in0.0 mm 0.00 in0.0 mm 0.08 in2.0 mm
03:35 PM 41.6°F5.3°C 31.1°F-0.5°C 66% 5.7 mph N9.2 kmh N 10.0 mph16.1 kmh 30.29 in1025.7 mb 0.00 in0.0 mm 0.00 in0.0 mm 0.08 in2.0 mm
03:30 PM 41.9°F5.5°C 31.4°F-0.3°C 66% 5.8 mph N9.3 kmh N 9.0 mph14.5 kmh 30.29 in1025.7 mb 0.00 in0.0 mm 0.00 in0.0 mm 0.08 in2.0 mm
03:25 PM 42.2°F5.7°C 31.7°F-0.2°C 66% 4.9 mph N7.9 kmh N 9.0 mph14.5 kmh 30.29 in1025.7 mb 0.00 in0.0 mm 0.00 in0.0 mm 0.08 in2.0 mm
03:20 PM 41.9°F5.5°C 31.4°F-0.3°C 66% 5.6 mph N9.0 kmh N 13.0 mph20.9 kmh 30.29 in1025.7 mb 0.00 in0.0 mm 0.00 in0.0 mm 0.08 in2.0 mm
03:15 PM 42.0°F5.6°C 31.8°F-0.1°C 67% 6.6 mph N10.6 kmh N 13.0 mph20.9 kmh 30.29 in1025.7 mb 0.00 in0.0 mm 0.00 in0.0 mm 0.08 in2.0 mm
03:10 PM 42.1°F5.6°C 31.6°F-0.2°C 66% 5.0 mph N8.0 kmh N 10.0 mph16.1 kmh 30.29 in1025.7 mb 0.00 in0.0 mm 0.00 in0.0 mm 0.08 in2.0 mm
03:05 PM 42.0°F5.6°C 31.5°F-0.3°C 66% 5.2 mph N8.4 kmh N 10.0 mph16.1 kmh 30.29 in1025.7 mb 0.00 in0.0 mm 0.00 in0.0 mm 0.08 in2.0 mm
03:00 PM 41.9°F5.5°C 31.8°F-0.1°C 67% 5.3 mph N8.5 kmh N 12.0 mph19.3 kmh 30.29 in1025.7 mb 0.00 in0.0 mm 0.00 in0.0 mm 0.08 in2.0 mm
02:55 PM 41.6°F5.3°C 31.5°F-0.3°C 67% 6.8 mph NNW10.9 kmh NNW 12.0 mph19.3 kmh 30.29 in1025.7 mb 0.00 in0.0 mm 0.00 in0.0 mm 0.08 in2.0 mm
02:50 PM 41.7°F5.4°C 31.6°F-0.2°C 67% 5.6 mph NNW9.0 kmh NNW 10.0 mph16.1 kmh 30.29 in1025.7 mb 0.00 in0.0 mm 0.00 in0.0 mm 0.08 in2.0 mm
02:45 PM 41.7°F5.4°C 31.6°F-0.2°C 67% 5.8 mph N9.3 kmh N 11.0 mph17.7 kmh 30.29 in1025.7 mb 0.00 in0.0 mm 0.00 in0.0 mm 0.08 in2.0 mm
02:40 PM 41.7°F5.4°C 31.6°F-0.2°C 67% 6.5 mph NNW10.5 kmh NNW 11.0 mph17.7 kmh 30.29 in1025.7 mb 0.00 in0.0 mm 0.00 in0.0 mm 0.08 in2.0 mm
02:35 PM 42.1°F5.6°C 32.3°F0.2°C 68% 6.4 mph NNW10.3 kmh NNW 11.0 mph17.7 kmh 30.29 in1025.7 mb 0.00 in0.0 mm 0.00 in0.0 mm 0.08 in2.0 mm
02:30 PM 42.2°F5.7°C 32.0°F0.0°C 67% 5.9 mph N9.5 kmh N 11.0 mph17.7 kmh 30.29 in1025.7 mb 0.00 in0.0 mm 0.00 in0.0 mm 0.08 in2.0 mm
02:25 PM 42.2°F5.7°C 32.0°F0.0°C 67% 5.9 mph NNW9.5 kmh NNW 13.0 mph20.9 kmh 30.30 in1026.1 mb 0.00 in0.0 mm 0.00 in0.0 mm 0.08 in2.0 mm
02:20 PM 42.2°F5.7°C 32.0°F0.0°C 67% 7.0 mph N11.3 kmh N 13.0 mph20.9 kmh 30.30 in1026.1 mb 0.00 in0.0 mm 0.00 in0.0 mm 0.08 in2.0 mm
02:15 PM 42.3°F5.7°C 31.8°F-0.1°C 66% 6.4 mph NNW10.3 kmh NNW 11.0 mph17.7 kmh 30.30 in1026.1 mb 0.00 in0.0 mm 0.00 in0.0 mm 0.08 in2.0 mm
02:10 PM 42.2°F5.7°C 32.0°F0.0°C 67% 6.0 mph N9.7 kmh N 11.0 mph17.7 kmh 30.30 in1026.1 mb 0.00 in0.0 mm 0.00 in0.0 mm 0.08 in2.0 mm
02:05 PM 42.0°F5.6°C 31.8°F-0.1°C 67% 5.7 mph NNW9.2 kmh NNW 12.0 mph19.3 kmh 30.30 in1026.1 mb 0.00 in0.0 mm 0.00 in0.0 mm 0.08 in2.0 mm
02:00 PM 42.4°F5.8°C 32.2°F0.1°C 67% 6.8 mph NNW10.9 kmh NNW 12.0 mph19.3 kmh 30.30 in1026.1 mb 0.00 in0.0 mm 0.00 in0.0 mm 0.08 in2.0 mm
01:55 PM 42.5°F5.8°C 32.3°F0.2°C 67% 5.8 mph N9.3 kmh N 11.0 mph17.7 kmh 30.30 in1026.1 mb 0.00 in0.0 mm 0.00 in0.0 mm 0.08 in2.0 mm
01:50 PM 42.2°F5.7°C 32.0°F0.0°C 67% 6.0 mph N9.7 kmh N 11.0 mph17.7 kmh 30.30 in1026.1 mb 0.00 in0.0 mm 0.00 in0.0 mm 0.08 in2.0 mm
01:45 PM 42.2°F5.7°C 32.0°F0.0°C 67% 5.6 mph N9.0 kmh N 10.0 mph16.1 kmh 30.30 in1026.1 mb 0.00 in0.0 mm 0.00 in0.0 mm 0.08 in2.0 mm
01:40 PM 42.2°F5.7°C 32.4°F0.2°C 68% 5.7 mph N9.2 kmh N 10.0 mph16.1 kmh 30.30 in1026.1 mb 0.00 in0.0 mm 0.00 in0.0 mm 0.08 in2.0 mm
01:35 PM 41.9°F5.5°C 32.1°F0.1°C 68% 5.5 mph N8.9 kmh N 12.0 mph19.3 kmh 30.30 in1026.1 mb 0.00 in0.0 mm 0.00 in0.0 mm 0.08 in2.0 mm
01:30 PM 41.9°F5.5°C 32.1°F0.1°C 68% 6.0 mph N9.7 kmh N 12.0 mph19.3 kmh 30.30 in1026.1 mb 0.00 in0.0 mm 0.00 in0.0 mm 0.08 in2.0 mm
01:25 PM 41.8°F5.4°C 32.0°F0.0°C 68% 6.3 mph N10.1 kmh N 10.0 mph16.1 kmh 30.30 in1026.1 mb 0.00 in0.0 mm 0.00 in0.0 mm 0.08 in2.0 mm
01:20 PM 42.1°F5.6°C 32.3°F0.2°C 68% 5.3 mph N8.5 kmh N 13.0 mph20.9 kmh 30.31 in1026.4 mb 0.00 in0.0 mm 0.00 in0.0 mm 0.08 in2.0 mm
01:15 PM 42.0°F5.6°C 32.6°F0.3°C 69% 7.0 mph N11.3 kmh N 13.0 mph20.9 kmh 30.31 in1026.4 mb 0.00 in0.0 mm 0.00 in0.0 mm 0.08 in2.0 mm
01:10 PM 41.8°F5.4°C 32.4°F0.2°C 69% 6.3 mph N10.1 kmh N 11.0 mph17.7 kmh 30.31 in1026.4 mb 0.00 in0.0 mm 0.00 in0.0 mm 0.08 in2.0 mm
01:05 PM 41.8°F5.4°C 32.7°F0.4°C 70% 6.5 mph N10.5 kmh N 11.0 mph17.7 kmh 30.31 in1026.4 mb 0.00 in0.0 mm 0.00 in0.0 mm 0.08 in2.0 mm
01:00 PM 42.1°F5.6°C 32.7°F0.4°C 69% 5.3 mph N8.5 kmh N 11.0 mph17.7 kmh 30.32 in1026.8 mb 0.00 in0.0 mm 0.00 in0.0 mm 0.08 in2.0 mm
12:55 PM 42.0°F5.6°C 32.9°F0.5°C 70% 5.5 mph NNW8.9 kmh NNW 13.0 mph20.9 kmh 30.32 in1026.8 mb 0.00 in0.0 mm 0.00 in0.0 mm 0.08 in2.0 mm
12:50 PM 41.8°F5.4°C 32.7°F0.4°C 70% 7.3 mph NNW11.7 kmh NNW 13.0 mph20.9 kmh 30.32 in1026.8 mb 0.00 in0.0 mm 0.00 in0.0 mm 0.08 in2.0 mm
12:45 PM 41.8°F5.4°C 33.1°F0.6°C 71% 6.2 mph N10.0 kmh N 12.0 mph19.3 kmh 30.32 in1026.8 mb 0.00 in0.0 mm 0.00 in0.0 mm 0.08 in2.0 mm
12:40 PM 41.5°F5.3°C 32.8°F0.4°C 71% 6.6 mph N10.6 kmh N 12.0 mph19.3 kmh 30.33 in1027.1 mb 0.00 in0.0 mm 0.00 in0.0 mm 0.08 in2.0 mm
12:35 PM 41.5°F5.3°C 32.5°F0.3°C 70% 6.3 mph N10.1 kmh N 11.0 mph17.7 kmh 30.33 in1027.1 mb 0.00 in0.0 mm 0.00 in0.0 mm 0.08 in2.0 mm
12:30 PM 41.9°F5.5°C 32.8°F0.4°C 70% 5.8 mph N9.3 kmh N 13.0 mph20.9 kmh 30.33 in1027.1 mb 0.00 in0.0 mm 0.00 in0.0 mm 0.08 in2.0 mm
12:25 PM 41.4°F5.2°C 32.7°F0.4°C 71% 6.7 mph N10.8 kmh N 13.0 mph20.9 kmh 30.34 in1027.4 mb 0.00 in0.0 mm 0.00 in0.0 mm 0.08 in2.0 mm
12:20 PM 41.3°F5.2°C 32.6°F0.3°C 71% 7.8 mph N12.6 kmh N 13.0 mph20.9 kmh 30.34 in1027.4 mb 0.00 in0.0 mm 0.00 in0.0 mm 0.08 in2.0 mm
12:15 PM 41.6°F5.3°C 32.9°F0.5°C 71% 7.3 mph N11.7 kmh N 13.0 mph20.9 kmh 30.34 in1027.4 mb 0.00 in0.0 mm 0.00 in0.0 mm 0.08 in2.0 mm
12:10 PM 41.7°F5.4°C 33.0°F0.6°C 71% 6.8 mph N10.9 kmh N 12.0 mph19.3 kmh 30.34 in1027.4 mb 0.00 in0.0 mm 0.00 in0.0 mm 0.08 in2.0 mm
12:05 PM 41.5°F5.3°C 32.8°F0.4°C 71% 7.0 mph N11.3 kmh N 11.0 mph17.7 kmh 30.34 in1027.4 mb 0.00 in0.0 mm 0.00 in0.0 mm 0.08 in2.0 mm
12:00 PM 41.3°F5.2°C 33.0°F0.6°C 72% 7.5 mph NNW12.1 kmh NNW 12.0 mph19.3 kmh 30.34 in1027.4 mb 0.00 in0.0 mm 0.00 in0.0 mm 0.08 in2.0 mm
11:55 AM 41.2°F5.1°C 32.9°F0.5°C 72% 7.1 mph N11.4 kmh N 15.0 mph24.1 kmh 30.35 in1027.8 mb 0.00 in0.0 mm 0.00 in0.0 mm 0.08 in2.0 mm
11:50 AM 41.0°F5.0°C 33.0°F0.6°C 73% 8.3 mph N13.4 kmh N 15.0 mph24.1 kmh 30.35 in1027.8 mb 0.00 in0.0 mm 0.00 in0.0 mm 0.08 in2.0 mm
11:45 AM 40.9°F4.9°C 32.9°F0.5°C 73% 7.2 mph N11.6 kmh N 13.0 mph20.9 kmh 30.35 in1027.8 mb 0.00 in0.0 mm 0.00 in0.0 mm 0.08 in2.0 mm
11:40 AM 41.0°F5.0°C 33.0°F0.6°C 73% 7.0 mph N11.3 kmh N 13.0 mph20.9 kmh 30.35 in1027.8 mb 0.00 in0.0 mm 0.00 in0.0 mm 0.08 in2.0 mm
11:35 AM 41.1°F5.1°C 33.5°F0.8°C 74% 7.1 mph N11.4 kmh N 13.0 mph20.9 kmh 30.35 in1027.8 mb 0.00 in0.0 mm 0.00 in0.0 mm 0.08 in2.0 mm
11:30 AM 40.8°F4.9°C 33.5°F0.8°C 75% 6.3 mph NNW10.1 kmh NNW 12.0 mph19.3 kmh 30.35 in1027.8 mb 0.00 in0.0 mm 0.00 in0.0 mm 0.08 in2.0 mm
11:25 AM 40.7°F4.8°C 33.4°F0.8°C 75% 6.8 mph NNW10.9 kmh NNW 11.0 mph17.7 kmh 30.36 in1028.1 mb 0.00 in0.0 mm 0.00 in0.0 mm 0.08 in2.0 mm
11:20 AM 40.7°F4.8°C 33.4°F0.8°C 75% 6.5 mph NNW10.5 kmh NNW 11.0 mph17.7 kmh 30.36 in1028.1 mb 0.00 in0.0 mm 0.00 in0.0 mm 0.08 in2.0 mm
11:15 AM 41.0°F5.0°C 33.7°F0.9°C 75% 6.0 mph NNW9.7 kmh NNW 10.0 mph16.1 kmh 30.36 in1028.1 mb 0.00 in0.0 mm 0.00 in0.0 mm 0.08 in2.0 mm
11:10 AM 40.9°F4.9°C 33.6°F0.9°C 75% 6.6 mph NNW10.6 kmh NNW 13.0 mph20.9 kmh 30.36 in1028.1 mb 0.00 in0.0 mm 0.00 in0.0 mm 0.08 in2.0 mm
11:05 AM 41.3°F5.2°C 33.6°F0.9°C 74% 8.5 mph NNW13.7 kmh NNW 13.0 mph20.9 kmh 30.36 in1028.1 mb 0.00 in0.0 mm 0.00 in0.0 mm 0.08 in2.0 mm
11:00 AM 41.7°F5.4°C 34.0°F1.1°C 74% 6.7 mph N10.8 kmh N 13.0 mph20.9 kmh 30.36 in1028.1 mb 0.00 in0.0 mm 0.00 in0.0 mm 0.08 in2.0 mm
10:55 AM 41.7°F5.4°C 34.0°F1.1°C 74% 6.0 mph N9.7 kmh N 11.0 mph17.7 kmh 30.36 in1028.1 mb 0.00 in0.0 mm 0.00 in0.0 mm 0.08 in2.0 mm
10:50 AM 41.6°F5.3°C 33.9°F1.1°C 74% 6.1 mph N9.8 kmh N 11.0 mph17.7 kmh 30.37 in1028.4 mb 0.00 in0.0 mm 0.00 in0.0 mm 0.08 in2.0 mm
10:45 AM 41.5°F5.3°C 34.2°F1.2°C 75% 6.3 mph NNW10.1 kmh NNW 13.0 mph20.9 kmh 30.37 in1028.4 mb 0.00 in0.0 mm 0.00 in0.0 mm 0.08 in2.0 mm
10:40 AM 41.5°F5.3°C 34.2°F1.2°C 75% 7.1 mph NNW11.4 kmh NNW 13.0 mph20.9 kmh 30.37 in1028.4 mb 0.00 in0.0 mm 0.00 in0.0 mm 0.08 in2.0 mm
10:35 AM 41.5°F5.3°C 34.2°F1.2°C 75% 7.1 mph NNW11.4 kmh NNW 13.0 mph20.9 kmh 30.37 in1028.4 mb 0.00 in0.0 mm 0.00 in0.0 mm 0.08 in2.0 mm
10:30 AM 41.4°F5.2°C 34.1°F1.2°C 75% 8.0 mph N12.9 kmh N 13.0 mph20.9 kmh 30.37 in1028.4 mb 0.00 in0.0 mm 0.00 in0.0 mm 0.08 in2.0 mm
10:25 AM 41.3°F5.2°C 34.3°F1.3°C 76% 7.4 mph NNW11.9 kmh NNW 14.0 mph22.5 kmh 30.36 in1028.1 mb 0.00 in0.0 mm 0.00 in0.0 mm 0.08 in2.0 mm
10:20 AM 41.4°F5.2°C 34.4°F1.3°C 76% 8.1 mph NNW13.0 kmh NNW 14.0 mph22.5 kmh 30.36 in1028.1 mb 0.00 in0.0 mm 0.00 in0.0 mm 0.08 in2.0 mm
10:15 AM 41.5°F5.3°C 34.8°F1.6°C 77% 7.3 mph N11.7 kmh N 13.0 mph20.9 kmh 30.36 in1028.1 mb 0.00 in0.0 mm 0.00 in0.0 mm 0.08 in2.0 mm
10:10 AM 41.4°F5.2°C 34.4°F1.3°C 76% 8.8 mph NNW14.2 kmh NNW 13.0 mph20.9 kmh 30.36 in1028.1 mb 0.00 in0.0 mm 0.00 in0.0 mm 0.08 in2.0 mm
10:05 AM 41.5°F5.3°C 34.5°F1.4°C 76% 7.6 mph NNW12.2 kmh NNW 11.0 mph17.7 kmh 30.35 in1027.8 mb 0.00 in0.0 mm 0.00 in0.0 mm 0.08 in2.0 mm
10:00 AM 41.8°F5.4°C 34.8°F1.6°C 76% 6.0 mph N9.7 kmh N 13.0 mph20.9 kmh 30.36 in1028.1 mb 0.00 in0.0 mm 0.00 in0.0 mm 0.08 in2.0 mm
09:55 AM 41.9°F5.5°C 34.6°F1.4°C 75% 7.0 mph N11.3 kmh N 14.0 mph22.5 kmh 30.36 in1028.1 mb 0.00 in0.0 mm 0.00 in0.0 mm 0.08 in2.0 mm
09:50 AM 42.0°F5.6°C 34.7°F1.5°C 75% 7.5 mph N12.1 kmh N 14.0 mph22.5 kmh 30.36 in1028.1 mb 0.00 in0.0 mm 0.00 in0.0 mm 0.08 in2.0 mm
09:45 AM 42.0°F5.6°C 34.3°F1.3°C 74% 6.7 mph N10.8 kmh N 14.0 mph22.5 kmh 30.35 in1027.8 mb 0.00 in0.0 mm 0.00 in0.0 mm 0.08 in2.0 mm
09:40 AM 42.1°F5.6°C 34.4°F1.3°C 74% 7.4 mph N11.9 kmh N 14.0 mph22.5 kmh 30.35 in1027.8 mb 0.00 in0.0 mm 0.00 in0.0 mm 0.08 in2.0 mm
09:35 AM 42.0°F5.6°C 34.3°F1.3°C 74% 7.4 mph N11.9 kmh N 15.0 mph24.1 kmh 30.35 in1027.8 mb 0.00 in0.0 mm 0.00 in0.0 mm 0.08 in2.0 mm
09:30 AM 42.1°F5.6°C 34.4°F1.3°C 74% 9.2 mph N14.8 kmh N 15.0 mph24.1 kmh 30.35 in1027.8 mb 0.00 in0.0 mm 0.00 in0.0 mm 0.08 in2.0 mm
09:25 AM 42.2°F5.7°C 34.2°F1.2°C 73% 7.6 mph N12.2 kmh N 13.0 mph20.9 kmh 30.34 in1027.4 mb 0.00 in0.0 mm 0.00 in0.0 mm 0.08 in2.0 mm
09:20 AM 42.4°F5.8°C 34.4°F1.3°C 73% 7.1 mph N11.4 kmh N 13.0 mph20.9 kmh 30.34 in1027.4 mb 0.00 in0.0 mm 0.00 in0.0 mm 0.08 in2.0 mm
09:15 AM 42.4°F5.8°C 34.7°F1.5°C 74% 7.1 mph N11.4 kmh N 12.0 mph19.3 kmh 30.34 in1027.4 mb 0.00 in0.0 mm 0.00 in0.0 mm 0.08 in2.0 mm
09:10 AM 42.3°F5.7°C 34.6°F1.4°C 74% 7.6 mph N12.2 kmh N 12.0 mph19.3 kmh 30.34 in1027.4 mb 0.00 in0.0 mm 0.00 in0.0 mm 0.08 in2.0 mm
09:05 AM 42.2°F5.7°C 34.5°F1.4°C 74% 5.8 mph N9.3 kmh N 12.0 mph19.3 kmh 30.34 in1027.4 mb 0.00 in0.0 mm 0.00 in0.0 mm 0.08 in2.0 mm
09:00 AM 42.0°F5.6°C 34.7°F1.5°C 75% 6.4 mph N10.3 kmh N 13.0 mph20.9 kmh 30.33 in1027.1 mb 0.00 in0.0 mm 0.00 in0.0 mm 0.08 in2.0 mm
08:55 AM 41.7°F5.4°C 34.7°F1.5°C 76% 6.4 mph N10.3 kmh N 14.0 mph22.5 kmh 30.33 in1027.1 mb 0.00 in0.0 mm 0.00 in0.0 mm 0.08 in2.0 mm
08:50 AM 41.6°F5.3°C 34.6°F1.4°C 76% 8.1 mph N13.0 kmh N 14.0 mph22.5 kmh 30.33 in1027.1 mb 0.00 in0.0 mm 0.00 in0.0 mm 0.08 in2.0 mm
08:45 AM 41.7°F5.4°C 34.7°F1.5°C 76% 7.4 mph N11.9 kmh N 13.0 mph20.9 kmh 30.33 in1027.1 mb 0.00 in0.0 mm 0.00 in0.0 mm 0.08 in2.0 mm
08:40 AM 41.9°F5.5°C 34.9°F1.6°C 76% 7.0 mph N11.3 kmh N 13.0 mph20.9 kmh 30.33 in1027.1 mb 0.00 in0.0 mm 0.00 in0.0 mm 0.08 in2.0 mm
08:35 AM 41.9°F5.5°C 34.9°F1.6°C 76% 7.2 mph N11.6 kmh N 11.0 mph17.7 kmh 30.33 in1027.1 mb 0.00 in0.0 mm 0.00 in0.0 mm 0.08 in2.0 mm
08:30 AM 41.9°F5.5°C 34.9°F1.6°C 76% 6.1 mph N9.8 kmh N 14.0 mph22.5 kmh 30.33 in1027.1 mb 0.00 in0.0 mm 0.00 in0.0 mm 0.08 in2.0 mm
08:25 AM 42.0°F5.6°C 35.0°F1.7°C 76% 7.7 mph N12.4 kmh N 15.0 mph24.1 kmh 30.33 in1027.1 mb 0.00 in0.0 mm 0.00 in0.0 mm 0.08 in2.0 mm
08:20 AM 42.1°F5.6°C 34.8°F1.6°C 75% 8.8 mph N14.2 kmh N 15.0 mph24.1 kmh 30.32 in1026.8 mb 0.00 in0.0 mm 0.00 in0.0 mm 0.08 in2.0 mm
08:15 AM 42.4°F5.8°C 35.0°F1.7°C 75% 6.9 mph N11.1 kmh N 14.0 mph22.5 kmh 30.32 in1026.8 mb 0.00 in0.0 mm 0.00 in0.0 mm 0.08 in2.0 mm
08:10 AM 42.4°F5.8°C 35.0°F1.7°C 75% 6.0 mph N9.7 kmh N 12.0 mph19.3 kmh 30.32 in1026.8 mb 0.00 in0.0 mm 0.00 in0.0 mm 0.08 in2.0 mm
08:05 AM 42.4°F5.8°C 35.0°F1.7°C 75% 8.0 mph NNW12.9 kmh NNW 12.0 mph19.3 kmh 30.32 in1026.8 mb 0.00 in0.0 mm 0.00 in0.0 mm 0.08 in2.0 mm
08:00 AM 42.6°F5.9°C 35.2°F1.8°C 75% 7.0 mph N11.3 kmh N 12.0 mph19.3 kmh 30.32 in1026.8 mb 0.00 in0.0 mm 0.00 in0.0 mm 0.08 in2.0 mm
07:55 AM 42.7°F5.9°C 35.3°F1.8°C 75% 5.4 mph N8.7 kmh N 11.0 mph17.7 kmh 30.31 in1026.4 mb 0.00 in0.0 mm 0.00 in0.0 mm 0.08 in2.0 mm
07:50 AM 42.8°F6.0°C 35.4°F1.9°C 75% 6.4 mph N10.3 kmh N 11.0 mph17.7 kmh 30.31 in1026.4 mb 0.00 in0.0 mm 0.00 in0.0 mm 0.08 in2.0 mm
07:45 AM 42.8°F6.0°C 35.4°F1.9°C 75% 7.3 mph N11.7 kmh N 13.0 mph20.9 kmh 30.31 in1026.4 mb 0.00 in0.0 mm 0.00 in0.0 mm 0.08 in2.0 mm
07:40 AM 42.8°F6.0°C 35.4°F1.9°C 75% 7.9 mph N12.7 kmh N 14.0 mph22.5 kmh 30.31 in1026.4 mb 0.00 in0.0 mm 0.00 in0.0 mm 0.08 in2.0 mm
07:35 AM 42.9°F6.1°C 35.5°F1.9°C 75% 8.0 mph N12.9 kmh N 16.0 mph25.7 kmh 30.30 in1026.1 mb 0.00 in0.0 mm 0.00 in0.0 mm 0.08 in2.0 mm
07:30 AM 43.0°F6.1°C 35.6°F2.0°C 75% 7.3 mph N11.7 kmh N 18.0 mph29.0 kmh 30.30 in1026.1 mb 0.00 in0.0 mm 0.00 in0.0 mm 0.08 in2.0 mm
07:25 AM 43.1°F6.2°C 35.4°F1.9°C 74% 8.7 mph N14.0 kmh N 18.0 mph29.0 kmh 30.31 in1026.4 mb 0.00 in0.0 mm 0.00 in0.0 mm 0.08 in2.0 mm
07:20 AM 43.2°F6.2°C 35.5°F1.9°C 74% 7.6 mph N12.2 kmh N 15.0 mph24.1 kmh 30.30 in1026.1 mb 0.00 in0.0 mm 0.00 in0.0 mm 0.08 in2.0 mm
07:15 AM 43.4°F6.3°C 35.7°F2.1°C 74% 6.7 mph NNW10.8 kmh NNW 11.0 mph17.7 kmh 30.30 in1026.1 mb 0.00 in0.0 mm 0.00 in0.0 mm 0.08 in2.0 mm
07:10 AM 43.6°F6.4°C 35.9°F2.2°C 74% 5.8 mph N9.3 kmh N 12.0 mph19.3 kmh 30.30 in1026.1 mb 0.00 in0.0 mm 0.00 in0.0 mm 0.08 in2.0 mm
07:05 AM 43.6°F6.4°C 35.9°F2.2°C 74% 7.0 mph N11.3 kmh N 15.0 mph24.1 kmh 30.30 in1026.1 mb 0.00 in0.0 mm 0.00 in0.0 mm 0.08 in2.0 mm
07:00 AM 43.6°F6.4°C 35.5°F1.9°C 73% 8.3 mph NNW13.4 kmh NNW 15.0 mph24.1 kmh 30.29 in1025.7 mb 0.00 in0.0 mm 0.00 in0.0 mm 0.08 in2.0 mm
06:55 AM 43.6°F6.4°C 35.5°F1.9°C 73% 8.1 mph NNW13.0 kmh NNW 14.0 mph22.5 kmh 30.29 in1025.7 mb 0.00 in0.0 mm 0.00 in0.0 mm 0.08 in2.0 mm
06:50 AM 43.8°F6.6°C 35.7°F2.1°C 73% 5.4 mph NNW8.7 kmh NNW 10.0 mph16.1 kmh 30.29 in1025.7 mb 0.00 in0.0 mm 0.00 in0.0 mm 0.08 in2.0 mm
06:45 AM 43.8°F6.6°C 35.7°F2.1°C 73% 5.6 mph NNW9.0 kmh NNW 11.0 mph17.7 kmh 30.29 in1025.7 mb 0.00 in0.0 mm 0.00 in0.0 mm 0.08 in2.0 mm
06:40 AM 43.9°F6.6°C 35.5°F1.9°C 72% 6.9 mph NNW11.1 kmh NNW 14.0 mph22.5 kmh 30.29 in1025.7 mb 0.00 in0.0 mm 0.00 in0.0 mm 0.08 in2.0 mm
06:35 AM 44.0°F6.7°C 35.6°F2.0°C 72% 7.6 mph NNW12.2 kmh NNW 14.0 mph22.5 kmh 30.29 in1025.7 mb 0.00 in0.0 mm 0.00 in0.0 mm 0.08 in2.0 mm
06:30 AM 44.2°F6.8°C 35.8°F2.1°C 72% 6.6 mph NNW10.6 kmh NNW 12.0 mph19.3 kmh 30.29 in1025.7 mb 0.00 in0.0 mm 0.00 in0.0 mm 0.08 in2.0 mm
06:25 AM 44.3°F6.8°C 35.9°F2.2°C 72% 6.7 mph NNW10.8 kmh NNW 12.0 mph19.3 kmh 30.29 in1025.7 mb 0.00 in0.0 mm 0.00 in0.0 mm 0.08 in2.0 mm
06:20 AM 44.4°F6.9°C 35.6°F2.0°C 71% 8.0 mph NNW12.9 kmh NNW 13.0 mph20.9 kmh 30.28 in1025.4 mb 0.00 in0.0 mm 0.00 in0.0 mm 0.08 in2.0 mm
06:15 AM 44.5°F6.9°C 35.7°F2.1°C 71% 8.1 mph NNW13.0 kmh NNW 13.0 mph20.9 kmh 30.28 in1025.4 mb 0.00 in0.0 mm 0.00 in0.0 mm 0.08 in2.0 mm
06:10 AM 44.8°F7.1°C 36.0°F2.2°C 71% 7.9 mph NNW12.7 kmh NNW 13.0 mph20.9 kmh 30.28 in1025.4 mb 0.00 in0.0 mm 0.00 in0.0 mm 0.08 in2.0 mm
06:05 AM 45.0°F7.2°C 35.8°F2.1°C 70% 8.2 mph NNW13.2 kmh NNW 16.0 mph25.7 kmh 30.27 in1025.1 mb 0.00 in0.0 mm 0.00 in0.0 mm 0.08 in2.0 mm
06:00 AM 45.3°F7.4°C 36.5°F2.5°C 71% 8.0 mph NNW12.9 kmh NNW 16.0 mph25.7 kmh 30.27 in1025.1 mb 0.00 in0.0 mm 0.00 in0.0 mm 0.08 in2.0 mm
05:55 AM 45.4°F7.4°C 36.6°F2.6°C 71% 7.4 mph NNW11.9 kmh NNW 12.0 mph19.3 kmh 30.27 in1025.1 mb 0.00 in0.0 mm 0.00 in0.0 mm 0.08 in2.0 mm
05:50 AM 45.5°F7.5°C 36.7°F2.6°C 71% 6.9 mph NNW11.1 kmh NNW 17.0 mph27.4 kmh 30.27 in1025.1 mb 0.00 in0.0 mm 0.00 in0.0 mm 0.08 in2.0 mm
05:45 AM 45.6°F7.6°C 36.7°F2.6°C 71% 8.5 mph NNW13.7 kmh NNW 17.0 mph27.4 kmh 30.27 in1025.1 mb 0.00 in0.0 mm 0.00 in0.0 mm 0.08 in2.0 mm
05:40 AM 45.7°F7.6°C 36.8°F2.7°C 71% 7.1 mph NNW11.4 kmh NNW 12.0 mph19.3 kmh 30.26 in1024.7 mb 0.00 in0.0 mm 0.00 in0.0 mm 0.08 in2.0 mm
05:35 AM 45.9°F7.7°C 37.0°F2.8°C 71% 5.3 mph NNW8.5 kmh NNW 12.0 mph19.3 kmh 30.26 in1024.7 mb 0.00 in0.0 mm 0.00 in0.0 mm 0.08 in2.0 mm
05:30 AM 46.0°F7.8°C 36.8°F2.7°C 70% 7.0 mph NNW11.3 kmh NNW 14.0 mph22.5 kmh 30.26 in1024.7 mb 0.00 in0.0 mm 0.00 in0.0 mm 0.08 in2.0 mm
05:25 AM 46.2°F7.9°C 37.0°F2.8°C 70% 7.4 mph NNW11.9 kmh NNW 14.0 mph22.5 kmh 30.25 in1024.4 mb 0.00 in0.0 mm 0.00 in0.0 mm 0.08 in2.0 mm
05:20 AM 46.3°F7.9°C 37.4°F3.0°C 71% 7.1 mph NNW11.4 kmh NNW 13.0 mph20.9 kmh 30.25 in1024.4 mb 0.00 in0.0 mm 0.00 in0.0 mm 0.08 in2.0 mm
05:15 AM 46.4°F8.0°C 37.5°F3.1°C 71% 6.6 mph NNW10.6 kmh NNW 13.0 mph20.9 kmh 30.25 in1024.4 mb 0.00 in0.0 mm 0.00 in0.0 mm 0.08 in2.0 mm
05:10 AM 46.4°F8.0°C 37.5°F3.1°C 71% 6.0 mph NNW9.7 kmh NNW 9.0 mph14.5 kmh 30.24 in1024.0 mb 0.00 in0.0 mm 0.00 in0.0 mm 0.08 in2.0 mm
05:05 AM 46.4°F8.0°C 37.5°F3.1°C 71% 5.3 mph NNW8.5 kmh NNW 10.0 mph16.1 kmh 30.24 in1024.0 mb 0.00 in0.0 mm 0.00 in0.0 mm 0.08 in2.0 mm
05:00 AM 46.4°F8.0°C 37.5°F3.1°C 71% 6.2 mph NNW10.0 kmh NNW 10.0 mph16.1 kmh 30.24 in1024.0 mb 0.00 in0.0 mm 0.00 in0.0 mm 0.08 in2.0 mm
04:55 AM 46.5°F8.1°C 37.6°F3.1°C 71% 6.5 mph NNW10.5 kmh NNW 11.0 mph17.7 kmh 30.23 in1023.7 mb 0.00 in0.0 mm 0.00 in0.0 mm 0.08 in2.0 mm
04:50 AM 46.5°F8.1°C 37.6°F3.1°C 71% 5.9 mph NNW9.5 kmh NNW 11.0 mph17.7 kmh 30.23 in1023.7 mb 0.00 in0.0 mm 0.00 in0.0 mm 0.08 in2.0 mm
04:45 AM 46.6°F8.1°C 37.7°F3.2°C 71% 5.7 mph NNW9.2 kmh NNW 9.0 mph14.5 kmh 30.23 in1023.7 mb 0.00 in0.0 mm 0.00 in0.0 mm 0.08 in2.0 mm
04:40 AM 46.7°F8.2°C 37.8°F3.2°C 71% 5.5 mph NNW8.9 kmh NNW 9.0 mph14.5 kmh 30.23 in1023.7 mb 0.00 in0.0 mm 0.00 in0.0 mm 0.08 in2.0 mm
04:35 AM 46.7°F8.2°C 38.2°F3.4°C 72% 4.4 mph NNW7.1 kmh NNW 9.0 mph14.5 kmh 30.23 in1023.7 mb 0.00 in0.0 mm 0.00 in0.0 mm 0.08 in2.0 mm
04:30 AM 46.8°F8.2°C 37.9°F3.3°C 71% 5.1 mph NNW8.2 kmh NNW 11.0 mph17.7 kmh 30.23 in1023.7 mb 0.00 in0.0 mm 0.00 in0.0 mm 0.08 in2.0 mm
04:25 AM 46.9°F8.3°C 38.0°F3.3°C 71% 6.5 mph NNW10.5 kmh NNW 12.0 mph19.3 kmh 30.23 in1023.7 mb 0.00 in0.0 mm 0.00 in0.0 mm 0.08 in2.0 mm
04:20 AM 47.0°F8.3°C 38.1°F3.4°C 71% 6.2 mph NNW10.0 kmh NNW 12.0 mph19.3 kmh 30.23 in1023.7 mb 0.00 in0.0 mm 0.00 in0.0 mm 0.08 in2.0 mm
04:15 AM 47.1°F8.4°C 38.2°F3.4°C 71% 6.1 mph NNW9.8 kmh NNW 11.0 mph17.7 kmh 30.22 in1023.4 mb 0.00 in0.0 mm 0.00 in0.0 mm 0.08 in2.0 mm
04:10 AM 47.4°F8.6°C 38.5°F3.6°C 71% 6.4 mph NNW10.3 kmh NNW 11.0 mph17.7 kmh 30.22 in1023.4 mb 0.00 in0.0 mm 0.00 in0.0 mm 0.08 in2.0 mm
04:05 AM 47.5°F8.6°C 38.6°F3.7°C 71% 6.6 mph NW10.6 kmh NW 11.0 mph17.7 kmh 30.22 in1023.4 mb 0.00 in0.0 mm 0.00 in0.0 mm 0.08 in2.0 mm
04:00 AM 47.7°F8.7°C 38.8°F3.8°C 71% 6.2 mph NNW10.0 kmh NNW 11.0 mph17.7 kmh 30.22 in1023.4 mb 0.00 in0.0 mm 0.00 in0.0 mm 0.08 in2.0 mm
03:55 AM 47.8°F8.8°C 38.5°F3.6°C 70% 6.8 mph NNW10.9 kmh NNW 12.0 mph19.3 kmh 30.21 in1023.0 mb 0.00 in0.0 mm 0.00 in0.0 mm 0.08 in2.0 mm
03:50 AM 47.8°F8.8°C 38.5°F3.6°C 70% 8.2 mph NNW13.2 kmh NNW 12.0 mph19.3 kmh 30.21 in1023.0 mb 0.00 in0.0 mm 0.00 in0.0 mm 0.08 in2.0 mm
03:45 AM 47.9°F8.8°C 39.0°F3.9°C 71% 7.1 mph N11.4 kmh N 12.0 mph19.3 kmh 30.21 in1023.0 mb 0.00 in0.0 mm 0.00 in0.0 mm 0.08 in2.0 mm
03:40 AM 47.9°F8.8°C 39.3°F4.1°C 72% 6.0 mph NW9.7 kmh NW 11.0 mph17.7 kmh 30.21 in1023.0 mb 0.00 in0.0 mm 0.00 in0.0 mm 0.08 in2.0 mm
03:35 AM 47.9°F8.8°C 39.0°F3.9°C 71% 6.3 mph NW10.1 kmh NW 14.0 mph22.5 kmh 30.20 in1022.7 mb 0.00 in0.0 mm 0.00 in0.0 mm 0.08 in2.0 mm
03:30 AM 48.0°F8.9°C 39.1°F3.9°C 71% 8.6 mph NNW13.8 kmh NNW 14.0 mph22.5 kmh 30.20 in1022.7 mb 0.00 in0.0 mm 0.00 in0.0 mm 0.08 in2.0 mm
03:25 AM 48.1°F8.9°C 39.5°F4.2°C 72% 7.1 mph NW11.4 kmh NW 14.0 mph22.5 kmh 30.20 in1022.7 mb 0.00 in0.0 mm 0.00 in0.0 mm 0.08 in2.0 mm
03:20 AM 48.2°F9.0°C 39.6°F4.2°C 72% 6.7 mph NNW10.8 kmh NNW 12.0 mph19.3 kmh 30.20 in1022.7 mb 0.00 in0.0 mm 0.00 in0.0 mm 0.08 in2.0 mm
03:15 AM 48.4°F9.1°C 39.4°F4.1°C 71% 7.9 mph NNW12.7 kmh NNW 12.0 mph19.3 kmh 30.19 in1022.4 mb 0.00 in0.0 mm 0.00 in0.0 mm 0.08 in2.0 mm
03:10 AM 48.5°F9.2°C 39.9°F4.4°C 72% 7.3 mph NNW11.7 kmh NNW 15.0 mph24.1 kmh 30.19 in1022.4 mb 0.00 in0.0 mm 0.00 in0.0 mm 0.08 in2.0 mm
03:05 AM 48.7°F9.3°C 39.7°F4.3°C 71% 8.1 mph NNW13.0 kmh NNW 15.0 mph24.1 kmh 30.19 in1022.4 mb 0.00 in0.0 mm 0.00 in0.0 mm 0.08 in2.0 mm
03:00 AM 48.8°F9.3°C 40.2°F4.6°C 72% 7.7 mph NW12.4 kmh NW 15.0 mph24.1 kmh 30.19 in1022.4 mb 0.00 in0.0 mm 0.00 in0.0 mm 0.08 in2.0 mm
02:55 AM 48.9°F9.4°C 40.3°F4.6°C 72% 7.7 mph NW12.4 kmh NW 13.0 mph20.9 kmh 30.18 in1022.0 mb 0.00 in0.0 mm 0.00 in0.0 mm 0.08 in2.0 mm
02:50 AM 49.1°F9.5°C 40.5°F4.7°C 72% 7.6 mph NW12.2 kmh NW 12.0 mph19.3 kmh 30.17 in1021.7 mb 0.00 in0.0 mm 0.00 in0.0 mm 0.08 in2.0 mm
02:45 AM 49.3°F9.6°C 40.7°F4.8°C 72% 6.8 mph NW10.9 kmh NW 12.0 mph19.3 kmh 30.17 in1021.7 mb 0.00 in0.0 mm 0.00 in0.0 mm 0.08 in2.0 mm
02:40 AM 49.7°F9.8°C 41.4°F5.2°C 73% 6.7 mph NW10.8 kmh NW 12.0 mph19.3 kmh 30.17 in1021.7 mb 0.00 in0.0 mm 0.00 in0.0 mm 0.08 in2.0 mm
02:35 AM 50.0°F10.0°C 42.0°F5.6°C 74% 6.7 mph NW10.8 kmh NW 11.0 mph17.7 kmh 30.17 in1021.7 mb 0.00 in0.0 mm 0.00 in0.0 mm 0.08 in2.0 mm
02:30 AM 50.2°F10.1°C 42.2°F5.7°C 74% 4.7 mph NW7.6 kmh NW 13.0 mph20.9 kmh 30.16 in1021.3 mb 0.00 in0.0 mm 0.00 in0.0 mm 0.08 in2.0 mm
02:25 AM 50.5°F10.3°C 42.2°F5.7°C 73% 6.8 mph NW10.9 kmh NW 14.0 mph22.5 kmh 30.16 in1021.3 mb 0.00 in0.0 mm 0.00 in0.0 mm 0.08 in2.0 mm
02:20 AM 50.7°F10.4°C 42.4°F5.8°C 73% 6.8 mph NW10.9 kmh NW 14.0 mph22.5 kmh 30.16 in1021.3 mb 0.00 in0.0 mm 0.00 in0.0 mm 0.08 in2.0 mm
02:15 AM 51.0°F10.6°C 43.0°F6.1°C 74% 7.8 mph NNW12.6 kmh NNW 14.0 mph22.5 kmh 30.16 in1021.3 mb 0.02 in0.5 mm 0.00 in0.0 mm 0.08 in2.0 mm
02:10 AM 51.3°F10.7°C 43.6°F6.4°C 75% 6.0 mph NW9.7 kmh NW 9.0 mph14.5 kmh 30.16 in1021.3 mb 0.03 in0.8 mm 0.00 in0.0 mm 0.08 in2.0 mm
02:05 AM 51.8°F11.0°C 44.1°F6.7°C 75% 5.1 mph NW8.2 kmh NW 9.0 mph14.5 kmh 30.15 in1021.0 mb 0.06 in1.5 mm 0.00 in0.0 mm 0.08 in2.0 mm
02:00 AM 52.6°F11.4°C 44.6°F7.0°C 74% 5.5 mph NW8.9 kmh NW 13.0 mph20.9 kmh 30.15 in1021.0 mb 0.08 in2.0 mm 0.00 in0.0 mm 0.08 in2.0 mm
01:55 AM 53.9°F12.2°C 45.8°F7.7°C 74% 6.7 mph NW10.8 kmh NW 13.0 mph20.9 kmh 30.15 in1021.0 mb 0.08 in2.0 mm 0.00 in0.0 mm 0.08 in2.0 mm
01:50 AM 55.7°F13.2°C 49.6°F9.8°C 80% 7.2 mph NW11.6 kmh NW 11.0 mph17.7 kmh 30.14 in1020.7 mb 0.08 in2.0 mm 0.00 in0.0 mm 0.08 in2.0 mm
01:45 AM 56.8°F13.8°C 52.3°F11.3°C 85% 2.4 mph W3.9 kmh W 6.0 mph9.7 kmh 30.14 in1020.7 mb 0.08 in2.0 mm 0.00 in0.0 mm 0.08 in2.0 mm
01:40 AM 56.8°F13.8°C 52.3°F11.3°C 85% 2.0 mph WSW3.2 kmh WSW 4.0 mph6.4 kmh 30.14 in1020.7 mb 0.08 in2.0 mm 0.00 in0.0 mm 0.08 in2.0 mm
01:35 AM 56.8°F13.8°C 52.0°F11.1°C 84% 2.1 mph SW3.4 kmh SW 4.0 mph6.4 kmh 30.14 in1020.7 mb 0.08 in2.0 mm 0.00 in0.0 mm 0.08 in2.0 mm
01:30 AM 56.7°F13.7°C 51.9°F11.1°C 84% 2.1 mph WSW3.4 kmh WSW 4.0 mph6.4 kmh 30.14 in1020.7 mb 0.08 in2.0 mm 0.00 in0.0 mm 0.08 in2.0 mm
01:25 AM 56.7°F13.7°C 51.3°F10.7°C 82% 1.5 mph SW2.4 kmh SW 4.0 mph6.4 kmh 30.14 in1020.7 mb 0.08 in2.0 mm 0.00 in0.0 mm 0.08 in2.0 mm
01:20 AM 56.9°F13.8°C 50.8°F10.4°C 80% 1.9 mph SW3.1 kmh SW 7.0 mph11.3 kmh 30.13 in1020.3 mb 0.08 in2.0 mm 0.24 in6.1 mm 0.08 in2.0 mm
01:15 AM 57.3°F14.1°C 50.5°F10.3°C 78% 2.9 mph WSW4.7 kmh WSW 8.0 mph12.9 kmh 30.13 in1020.3 mb 0.06 in1.5 mm 0.12 in3.0 mm 0.06 in1.5 mm
01:10 AM 57.9°F14.4°C 50.4°F10.2°C 76% 3.3 mph WSW5.3 kmh WSW 8.0 mph12.9 kmh 30.14 in1020.7 mb 0.05 in1.3 mm 0.36 in9.1 mm 0.05 in1.3 mm
01:05 AM 58.6°F14.8°C 50.0°F10.0°C 73% 2.6 mph W4.2 kmh W 8.0 mph12.9 kmh 30.14 in1020.7 mb 0.02 in0.5 mm 0.24 in6.1 mm 0.02 in0.5 mm
01:00 AM 58.6°F14.8°C 49.6°F9.8°C 72% 3.1 mph WNW5.0 kmh WNW 8.0 mph12.9 kmh 30.14 in1020.7 mb 0.00 in0.0 mm 0.00 in0.0 mm 0.00 in0.0 mm
12:55 AM 58.4°F14.7°C 49.4°F9.7°C 72% 3.5 mph WNW5.6 kmh WNW 13.0 mph20.9 kmh 30.14 in1020.7 mb 0.00 in0.0 mm 0.00 in0.0 mm 0.00 in0.0 mm
12:50 AM 58.1°F14.5°C 49.1°F9.5°C 72% 5.1 mph NW8.2 kmh NW 13.0 mph20.9 kmh 30.13 in1020.3 mb 0.00 in0.0 mm 0.00 in0.0 mm 0.00 in0.0 mm
12:45 AM 57.9°F14.4°C 49.3°F9.6°C 73% 4.3 mph NW6.9 kmh NW 8.0 mph12.9 kmh 30.13 in1020.3 mb 0.00 in0.0 mm 0.00 in0.0 mm 0.00 in0.0 mm
12:40 AM 57.7°F14.3°C 49.1°F9.5°C 73% 3.1 mph S5.0 kmh S 6.0 mph9.7 kmh 30.11 in1019.6 mb 0.00 in0.0 mm 0.00 in0.0 mm 0.00 in0.0 mm
12:35 AM 57.6°F14.2°C 49.0°F9.4°C 73% 3.1 mph S5.0 kmh S 6.0 mph9.7 kmh 30.11 in1019.6 mb 0.00 in0.0 mm 0.00 in0.0 mm 0.00 in0.0 mm
12:30 AM 57.5°F14.2°C 48.9°F9.4°C 73% 3.4 mph S5.5 kmh S 5.0 mph8.0 kmh 30.11 in1019.6 mb 0.00 in0.0 mm 0.00 in0.0 mm 0.00 in0.0 mm
12:25 AM 57.5°F14.2°C 48.9°F9.4°C 73% 2.6 mph S4.2 kmh S 5.0 mph8.0 kmh 30.12 in1020.0 mb 0.00 in0.0 mm 0.00 in0.0 mm 0.00 in0.0 mm
12:20 AM 57.2°F14.0°C 49.0°F9.4°C 74% 1.5 mph S2.4 kmh S 5.0 mph8.0 kmh 30.12 in1020.0 mb 0.00 in0.0 mm 0.00 in0.0 mm 0.00 in0.0 mm
12:15 AM 57.0°F13.9°C 48.8°F9.3°C 74% 1.1 mph S1.8 kmh S 4.0 mph6.4 kmh 30.12 in1020.0 mb 0.00 in0.0 mm 0.00 in0.0 mm 0.00 in0.0 mm
12:10 AM 56.8°F13.8°C 48.6°F9.2°C 74% 1.8 mph S2.9 kmh S 4.0 mph6.4 kmh 30.12 in1020.0 mb 0.00 in0.0 mm 0.00 in0.0 mm 0.00 in0.0 mm
12:05 AM 56.7°F13.7°C 48.5°F9.2°C 74% 2.2 mph S3.5 kmh S 4.0 mph6.4 kmh 30.12 in1020.0 mb 0.00 in0.0 mm 0.00 in0.0 mm 0.00 in0.0 mm
12:00 AM 56.7°F13.7°C 48.5°F9.2°C 74% 1.9 mph S3.1 kmh S 4.0 mph6.4 kmh 30.12 in1020.0 mb 0.00 in0.0 mm 0.00 in0.0 mm 0.00 in0.0 mm